createdAt,value
2023-01-07T00:04:39.959Z,14.25
2023-01-07T00:10:42.291Z,15.35
2023-01-07T00:16:44.548Z,14.02
2023-01-07T00:22:46.822Z,20.63
2023-01-07T00:28:51.282Z,28.02
2023-01-07T00:34:53.501Z,20.52
2023-01-07T00:40:56.170Z,16.27
2023-01-07T00:46:59.683Z,22.73
2023-01-07T00:53:02.376Z,14.50
2023-01-07T00:59:04.729Z,14.93
2023-01-07T01:11:11.064Z,10.50
2023-01-07T01:17:13.435Z,13.77
2023-01-07T01:23:15.585Z,14.02
2023-01-07T01:29:17.794Z,12.00
2023-01-07T01:35:20.052Z,21.45
2023-01-07T01:41:23.712Z,13.05
2023-01-07T01:48:04.931Z,11.30
2023-01-07T01:54:12.645Z,15.02
2023-01-07T02:00:19.422Z,14.35
2023-01-07T02:06:27.588Z,14.70
2023-01-07T02:12:55.668Z,15.07
2023-01-07T02:19:25.345Z,9.13
2023-01-07T02:26:00.019Z,16.25
2023-01-07T02:32:21.034Z,11.63
2023-01-07T02:38:45.231Z,13.85
2023-01-07T02:44:56.441Z,14.73
2023-01-07T02:50:58.791Z,16.98
2023-01-07T02:57:31.076Z,16.08
2023-01-07T03:03:49.007Z,12.05
2023-01-07T03:10:00.143Z,17.02
2023-01-07T03:16:26.052Z,17.27
2023-01-07T03:22:31.178Z,18.35
2023-01-07T03:28:37.755Z,13.40
2023-01-07T03:34:41.260Z,17.58
2023-01-07T03:40:44.642Z,14.45
2023-01-07T03:52:51.365Z,13.65
2023-01-07T03:58:55.341Z,9.55
2023-01-07T04:04:58.618Z,8.68
2023-01-07T04:11:01.456Z,8.40
2023-01-07T04:17:04.291Z,16.45
2023-01-07T04:23:06.686Z,11.15
2023-01-07T04:29:09.187Z,13.63
2023-01-07T04:35:11.429Z,11.32
2023-01-07T04:41:14.827Z,12.55
2023-01-07T04:47:17.159Z,14.10
2023-01-07T04:53:20.308Z,11.35
2023-01-07T04:59:23.888Z,10.85
2023-01-07T05:05:26.341Z,12.68
2023-01-07T05:11:29.334Z,10.82
2023-01-07T05:17:33.824Z,15.98
2023-01-07T05:23:37.340Z,15.50
2023-01-07T05:29:39.739Z,11.02
2023-01-07T05:35:41.921Z,10.57
2023-01-07T05:41:44.200Z,15.07
2023-01-07T05:47:46.736Z,14.13
2023-01-07T05:53:49.270Z,16.33
2023-01-07T05:59:51.510Z,14.63
2023-01-07T06:05:53.805Z,13.85
2023-01-07T06:11:56.130Z,20.55
2023-01-07T06:24:00.524Z,13.60
2023-01-07T06:30:04.742Z,21.48
2023-01-07T06:36:08.430Z,19.73
2023-01-07T06:42:11.053Z,18.35
2023-01-07T06:54:15.597Z,14.10
2023-01-07T07:00:18.006Z,13.23
2023-01-07T07:06:20.183Z,13.73
2023-01-07T07:12:22.832Z,19.75
2023-01-07T07:18:25.115Z,13.45
2023-01-07T07:24:27.228Z,15.57
2023-01-07T07:30:46.569Z,13.30
2023-01-07T07:36:50.244Z,17.00
2023-01-07T07:43:11.327Z,12.25
2023-01-07T07:49:14.495Z,15.10
2023-01-07T07:55:20.772Z,11.07
2023-01-07T08:01:28.360Z,11.88
2023-01-07T08:07:32.247Z,8.07
2023-01-07T08:13:36.178Z,14.23
2023-01-07T08:19:38.372Z,12.85
2023-01-07T08:25:40.679Z,16.15
2023-01-07T08:31:43.124Z,9.13
2023-01-07T08:37:45.741Z,12.68
2023-01-07T08:43:48.204Z,14.00
2023-01-07T08:49:50.402Z,12.50
2023-01-07T08:55:52.610Z,15.07
2023-01-07T09:01:55.278Z,11.82
2023-01-07T09:14:00.523Z,10.37
2023-01-07T09:20:04.155Z,13.52
2023-01-07T09:26:06.686Z,21.70
2023-01-07T09:32:09.136Z,18.25
2023-01-07T09:38:11.407Z,12.35
2023-01-07T09:44:25.896Z,22.45
2023-01-07T09:50:45.138Z,12.77
2023-01-07T09:56:47.703Z,18.92
2023-01-07T10:03:11.564Z,17.80
2023-01-07T10:09:38.420Z,19.42
2023-01-07T10:15:40.881Z,24.30
2023-01-07T10:22:03.172Z,18.65
2023-01-07T10:28:10.549Z,19.63
2023-01-07T10:34:31.703Z,23.90
2023-01-07T10:40:42.178Z,16.23
2023-01-07T10:47:08.104Z,22.20
2023-01-07T10:53:31.888Z,20.17
2023-01-07T10:59:34.744Z,22.50
2023-01-07T11:11:41.322Z,19.90
2023-01-07T11:17:56.585Z,21.05
2023-01-07T11:23:59.570Z,16.02
2023-01-07T11:30:16.692Z,19.83
2023-01-07T11:36:19.075Z,14.73
2023-01-07T11:42:39.358Z,17.00
2023-01-07T11:48:50.312Z,18.13
2023-01-07T11:54:52.724Z,17.70
2023-01-07T12:01:22.282Z,16.27
2023-01-07T12:07:25.467Z,17.50
2023-01-07T12:13:28.819Z,20.10
2023-01-07T12:20:04.511Z,18.20
2023-01-07T12:26:19.096Z,24.05
2023-01-07T12:32:57.563Z,15.82
2023-01-07T12:39:04.226Z,19.75
2023-01-07T12:45:14.977Z,17.85
2023-01-07T12:51:31.678Z,17.55
2023-01-07T12:57:37.654Z,20.83
2023-01-07T13:04:03.230Z,14.80
2023-01-07T13:32:04.451Z,21.83
2023-01-07T13:38:39.964Z,14.65
2023-01-07T13:45:11.619Z,16.88
2023-01-07T13:51:14.286Z,15.63
2023-01-07T13:57:31.329Z,16.88
2023-01-07T14:03:39.653Z,20.52
2023-01-07T14:09:41.874Z,13.98
2023-01-07T14:15:59.780Z,16.40
2023-01-07T14:22:31.976Z,15.35
2023-01-07T14:28:36.981Z,17.17
2023-01-07T14:34:39.407Z,19.83
2023-01-07T14:40:49.058Z,28.77
2023-01-07T14:46:51.797Z,34.38
2023-01-07T14:59:20.179Z,25.75
2023-01-07T15:05:47.233Z,20.83
2023-01-07T15:12:10.305Z,26.45
2023-01-07T15:18:13.239Z,28.98
2023-01-07T15:24:40.714Z,18.67
2023-01-07T15:30:57.328Z,25.55
2023-01-07T15:37:03.240Z,26.42
2023-01-07T15:43:06.580Z,23.02
2023-01-07T15:49:11.548Z,29.77
2023-01-07T15:55:30.580Z,24.88
2023-01-07T16:01:32.847Z,20.75
2023-01-07T16:07:50.091Z,29.65
2023-01-07T16:14:19.921Z,34.95
2023-01-07T16:20:35.598Z,32.80
2023-01-07T16:26:41.523Z,34.15
2023-01-07T16:32:45.622Z,41.83
2023-01-07T16:38:50.400Z,47.47
2023-01-07T16:44:55.699Z,59.95
2023-01-07T16:50:57.810Z,75.28
2023-01-07T16:57:02.826Z,66.63
2023-01-07T17:03:05.157Z,60.42
2023-01-07T17:09:20.896Z,72.47
2023-01-07T17:15:32.663Z,54.90
2023-01-07T17:21:42.511Z,57.17
2023-01-07T17:28:00.755Z,58.10
2023-01-07T17:34:02.842Z,54.03
2023-01-07T17:40:05.968Z,58.17
2023-01-07T17:46:11.903Z,63.38
2023-01-07T17:52:14.269Z,62.42
2023-01-07T17:58:29.092Z,57.92
2023-01-07T18:04:31.445Z,57.65
2023-01-07T18:10:53.569Z,77.95
2023-01-07T18:16:56.008Z,75.28
2023-01-07T18:22:58.370Z,64.63
2023-01-07T18:29:00.496Z,79.15
2023-01-07T18:35:02.909Z,73.10
2023-01-07T18:41:05.362Z,62.78
2023-01-07T18:47:07.448Z,50.28
2023-01-07T18:53:09.924Z,56.03
2023-01-07T18:59:13.096Z,47.20
2023-01-07T19:05:15.290Z,70.22
2023-01-07T19:11:17.364Z,67.43
2023-01-07T19:17:19.667Z,86.83
2023-01-07T19:23:22.091Z,61.50
2023-01-07T19:29:24.321Z,79.85
2023-01-07T19:35:27.203Z,85.55
2023-01-07T19:41:29.963Z,78.70
2023-01-07T19:53:35.855Z,52.78
2023-01-07T19:59:37.997Z,70.03
2023-01-07T20:05:40.216Z,89.80
2023-01-07T20:11:45.238Z,66.03
2023-01-07T20:17:47.461Z,75.28
2023-01-07T20:23:49.896Z,64.30
2023-01-07T20:29:52.311Z,61.95
2023-01-07T20:36:09.579Z,61.10
2023-01-07T20:42:11.836Z,66.05
2023-01-07T20:48:15.715Z,61.85
2023-01-07T20:54:18.094Z,78.63
2023-01-07T21:00:20.511Z,84.47
2023-01-07T21:06:22.951Z,78.05
2023-01-07T21:12:25.488Z,64.90
2023-01-07T21:18:27.799Z,78.57
2023-01-07T21:24:30.368Z,72.55
2023-01-07T21:30:33.041Z,76.40
2023-01-07T21:42:37.424Z,67.93
2023-01-07T21:48:41.738Z,82.60
2023-01-07T21:54:44.078Z,78.20
2023-01-07T22:00:50.702Z,79.40
2023-01-07T22:06:53.427Z,75.75
2023-01-07T22:18:58.042Z,103.50
2023-01-07T22:25:00.117Z,96.40
2023-01-07T22:31:15.982Z,107.50
2023-01-07T22:37:21.157Z,133.57
2023-01-07T22:43:25.116Z,129.10
2023-01-07T22:49:29.312Z,125.05
2023-01-07T22:55:32.985Z,109.85
2023-01-07T23:01:35.768Z,99.70
2023-01-07T23:07:37.885Z,112.22
2023-01-07T23:13:40.038Z,76.07
2023-01-07T23:19:42.185Z,96.25
2023-01-07T23:25:48.744Z,105.15
2023-01-07T23:31:51.491Z,118.32
2023-01-07T23:37:53.593Z,119.25
2023-01-07T23:43:56.149Z,89.90
2023-01-07T23:56:00.219Z,81.63
